sensor_id;sensor_type;location;lat;lon;timestamp;P1;durP1;ratioP1;P2;durP2;ratioP2
5054;SDS011;13829;48.990;8.346;2023-03-31T00:01:05;4.33;;;1.67;;
5054;SDS011;13829;48.990;8.346;2023-03-31T00:03:34;3.70;;;1.70;;
5054;SDS011;13829;48.990;8.346;2023-03-31T00:06:04;7.67;;;2.07;;
5054;SDS011;13829;48.990;8.346;2023-03-31T00:08:31;5.27;;;1.87;;
5054;SDS011;13829;48.990;8.346;2023-03-31T00:11:01;4.67;;;2.00;;
5054;SDS011;13829;48.990;8.346;2023-03-31T00:13:32;3.43;;;1.73;;
5054;SDS011;13829;48.990;8.346;2023-03-31T00:16:06;6.00;;;2.10;;
5054;SDS011;13829;48.990;8.346;2023-03-31T00:18:39;6.40;;;2.30;;
5054;SDS011;13829;48.990;8.346;2023-03-31T00:21:13;5.20;;;2.27;;
5054;SDS011;13829;48.990;8.346;2023-03-31T00:23:49;5.83;;;1.80;;
5054;SDS011;13829;48.990;8.346;2023-03-31T00:26:16;4.77;;;2.03;;
5054;SDS011;13829;48.990;8.346;2023-03-31T00:28:43;5.17;;;2.00;;
5054;SDS011;13829;48.990;8.346;2023-03-31T00:31:12;7.07;;;2.33;;
5054;SDS011;13829;48.990;8.346;2023-03-31T00:33:39;6.90;;;2.13;;
5054;SDS011;13829;48.990;8.346;2023-03-31T00:36:08;5.23;;;2.03;;
5054;SDS011;13829;48.990;8.346;2023-03-31T00:38:43;4.80;;;1.90;;
5054;SDS011;13829;48.990;8.346;2023-03-31T00:41:10;3.07;;;1.80;;
5054;SDS011;13829;48.990;8.346;2023-03-31T00:43:37;5.53;;;1.93;;
5054;SDS011;13829;48.990;8.346;2023-03-31T00:46:13;4.93;;;1.80;;
5054;SDS011;13829;48.990;8.346;2023-03-31T00:48:46;6.40;;;2.07;;
5054;SDS011;13829;48.990;8.346;2023-03-31T00:51:17;9.60;;;2.10;;
5054;SDS011;13829;48.990;8.346;2023-03-31T00:53:49;3.53;;;1.73;;
5054;SDS011;13829;48.990;8.346;2023-03-31T00:56:24;7.93;;;2.47;;
5054;SDS011;13829;48.990;8.346;2023-03-31T00:58:57;9.50;;;2.40;;
5054;SDS011;13829;48.990;8.346;2023-03-31T01:01:34;5.47;;;1.90;;
5054;SDS011;13829;48.990;8.346;2023-03-31T01:04:06;5.53;;;1.90;;
5054;SDS011;13829;48.990;8.346;2023-03-31T01:06:36;5.60;;;2.30;;
5054;SDS011;13829;48.990;8.346;2023-03-31T01:09:17;6.83;;;2.10;;
5054;SDS011;13829;48.990;8.346;2023-03-31T01:11:46;3.73;;;1.60;;
5054;SDS011;13829;48.990;8.346;2023-03-31T01:14:14;5.00;;;1.93;;
5054;SDS011;13829;48.990;8.346;2023-03-31T01:16:42;4.13;;;1.40;;
5054;SDS011;13829;48.990;8.346;2023-03-31T01:19:17;4.40;;;1.40;;
5054;SDS011;13829;48.990;8.346;2023-03-31T01:22:07;4.50;;;1.70;;
5054;SDS011;13829;48.990;8.346;2023-03-31T01:25:20;4.57;;;1.40;;
5054;SDS011;13829;48.990;8.346;2023-03-31T01:28:29;3.47;;;1.40;;
5054;SDS011;13829;48.990;8.346;2023-03-31T01:31:12;7.47;;;1.20;;
5054;SDS011;13829;48.990;8.346;2023-03-31T01:37:37;2.97;;;1.50;;
5054;SDS011;13829;48.990;8.346;2023-03-31T01:40:57;4.83;;;1.30;;
5054;SDS011;13829;48.990;8.346;2023-03-31T01:43:52;4.47;;;1.60;;
5054;SDS011;13829;48.990;8.346;2023-03-31T01:46:33;4.37;;;1.83;;
5054;SDS011;13829;48.990;8.346;2023-03-31T01:49:17;6.53;;;2.27;;
5054;SDS011;13829;48.990;8.346;2023-03-31T01:51:56;5.73;;;2.40;;
5054;SDS011;13829;48.990;8.346;2023-03-31T01:54:35;7.40;;;2.23;;
5054;SDS011;13829;48.990;8.346;2023-03-31T01:57:11;4.60;;;2.40;;
5054;SDS011;13829;48.990;8.346;2023-03-31T01:59:45;4.50;;;2.50;;
5054;SDS011;13829;48.990;8.346;2023-03-31T02:02:22;4.83;;;2.40;;
5054;SDS011;13829;48.990;8.346;2023-03-31T02:04:59;6.70;;;2.37;;
5054;SDS011;13829;48.990;8.346;2023-03-31T02:07:36;3.83;;;2.00;;
5054;SDS011;13829;48.990;8.346;2023-03-31T02:10:10;9.27;;;2.43;;
5054;SDS011;13829;48.990;8.346;2023-03-31T02:12:41;8.03;;;2.53;;
5054;SDS011;13829;48.990;8.346;2023-03-31T02:15:13;8.10;;;2.43;;
5054;SDS011;13829;48.990;8.346;2023-03-31T02:17:52;6.97;;;2.77;;
5054;SDS011;13829;48.990;8.346;2023-03-31T02:20:24;9.13;;;2.93;;
5054;SDS011;13829;48.990;8.346;2023-03-31T02:23:06;6.47;;;2.90;;
5054;SDS011;13829;48.990;8.346;2023-03-31T02:25:39;15.57;;;3.17;;
5054;SDS011;13829;48.990;8.346;2023-03-31T02:28:18;5.73;;;2.53;;
5054;SDS011;13829;48.990;8.346;2023-03-31T02:30:51;10.00;;;3.23;;
5054;SDS011;13829;48.990;8.346;2023-03-31T02:33:32;7.17;;;3.03;;
5054;SDS011;13829;48.990;8.346;2023-03-31T02:36:00;12.30;;;3.80;;
5054;SDS011;13829;48.990;8.346;2023-03-31T02:38:29;6.70;;;2.77;;
5054;SDS011;13829;48.990;8.346;2023-03-31T02:41:03;8.40;;;2.93;;
5054;SDS011;13829;48.990;8.346;2023-03-31T02:43:35;7.90;;;3.30;;
5054;SDS011;13829;48.990;8.346;2023-03-31T02:46:02;5.37;;;2.87;;
5054;SDS011;13829;48.990;8.346;2023-03-31T02:48:29;6.93;;;2.83;;
5054;SDS011;13829;48.990;8.346;2023-03-31T02:54:20;6.90;;;3.13;;
5054;SDS011;13829;48.990;8.346;2023-03-31T02:57:27;6.50;;;3.20;;
5054;SDS011;13829;48.990;8.346;2023-03-31T03:00:18;7.33;;;2.90;;
5054;SDS011;13829;48.990;8.346;2023-03-31T03:03:05;8.30;;;2.97;;
5054;SDS011;13829;48.990;8.346;2023-03-31T03:05:56;4.23;;;2.87;;
5054;SDS011;13829;48.990;8.346;2023-03-31T03:08:42;10.00;;;3.50;;
5054;SDS011;13829;48.990;8.346;2023-03-31T03:11:30;7.00;;;3.20;;
5054;SDS011;13829;48.990;8.346;2023-03-31T03:14:11;5.00;;;2.80;;
5054;SDS011;13829;48.990;8.346;2023-03-31T03:16:52;5.13;;;2.80;;
5054;SDS011;13829;48.990;8.346;2023-03-31T03:19:32;7.63;;;3.00;;
5054;SDS011;13829;48.990;8.346;2023-03-31T03:22:01;5.37;;;2.80;;
5054;SDS011;13829;48.990;8.346;2023-03-31T03:24:28;6.13;;;2.90;;
5054;SDS011;13829;48.990;8.346;2023-03-31T03:26:58;5.53;;;3.00;;
5054;SDS011;13829;48.990;8.346;2023-03-31T03:29:26;5.63;;;2.57;;
5054;SDS011;13829;48.990;8.346;2023-03-31T03:31:56;5.63;;;2.97;;
5054;SDS011;13829;48.990;8.346;2023-03-31T03:34:25;7.70;;;2.73;;
5054;SDS011;13829;48.990;8.346;2023-03-31T03:36:56;4.40;;;2.40;;
5054;SDS011;13829;48.990;8.346;2023-03-31T03:39:26;7.73;;;3.10;;
5054;SDS011;13829;48.990;8.346;2023-03-31T03:41:53;6.90;;;2.67;;
5054;SDS011;13829;48.990;8.346;2023-03-31T03:44:20;5.30;;;2.83;;
5054;SDS011;13829;48.990;8.346;2023-03-31T03:46:46;11.03;;;5.50;;
5054;SDS011;13829;48.990;8.346;2023-03-31T03:49:15;3.57;;;2.70;;
5054;SDS011;13829;48.990;8.346;2023-03-31T03:51:44;5.30;;;3.13;;
5054;SDS011;13829;48.990;8.346;2023-03-31T03:54:13;4.27;;;2.80;;
5054;SDS011;13829;48.990;8.346;2023-03-31T03:56:41;6.57;;;3.20;;
5054;SDS011;13829;48.990;8.346;2023-03-31T03:59:09;4.93;;;2.90;;
5054;SDS011;13829;48.990;8.346;2023-03-31T04:01:37;5.93;;;2.57;;
5054;SDS011;13829;48.990;8.346;2023-03-31T04:04:04;4.93;;;2.77;;
5054;SDS011;13829;48.990;8.346;2023-03-31T04:06:33;6.27;;;2.70;;
5054;SDS011;13829;48.990;8.346;2023-03-31T04:09:02;7.47;;;2.73;;
5054;SDS011;13829;48.990;8.346;2023-03-31T04:11:31;7.30;;;3.80;;
5054;SDS011;13829;48.990;8.346;2023-03-31T04:13:58;4.80;;;2.70;;
5054;SDS011;13829;48.990;8.346;2023-03-31T04:16:25;7.87;;;3.93;;
5054;SDS011;13829;48.990;8.346;2023-03-31T04:18:54;7.53;;;3.00;;
5054;SDS011;13829;48.990;8.346;2023-03-31T04:21:23;7.17;;;2.83;;
5054;SDS011;13829;48.990;8.346;2023-03-31T04:23:53;9.67;;;3.40;;
5054;SDS011;13829;48.990;8.346;2023-03-31T04:26:27;6.07;;;2.60;;
5054;SDS011;13829;48.990;8.346;2023-03-31T04:29:05;9.13;;;3.17;;
5054;SDS011;13829;48.990;8.346;2023-03-31T04:31:33;6.90;;;3.70;;
5054;SDS011;13829;48.990;8.346;2023-03-31T04:34:05;4.30;;;2.93;;
5054;SDS011;13829;48.990;8.346;2023-03-31T04:36:37;6.40;;;2.90;;
5054;SDS011;13829;48.990;8.346;2023-03-31T04:39:08;4.30;;;3.20;;
5054;SDS011;13829;48.990;8.346;2023-03-31T04:41:38;4.80;;;3.00;;
5054;SDS011;13829;48.990;8.346;2023-03-31T04:44:05;6.70;;;3.30;;
5054;SDS011;13829;48.990;8.346;2023-03-31T04:46:31;5.50;;;3.20;;
5054;SDS011;13829;48.990;8.346;2023-03-31T04:49:03;5.67;;;2.83;;
5054;SDS011;13829;48.990;8.346;2023-03-31T04:51:31;4.80;;;2.70;;
5054;SDS011;13829;48.990;8.346;2023-03-31T04:53:58;4.53;;;3.07;;
5054;SDS011;13829;48.990;8.346;2023-03-31T04:56:29;5.40;;;3.77;;
5054;SDS011;13829;48.990;8.346;2023-03-31T04:58:55;5.93;;;3.60;;
5054;SDS011;13829;48.990;8.346;2023-03-31T05:01:22;6.40;;;3.47;;
5054;SDS011;13829;48.990;8.346;2023-03-31T05:03:51;8.40;;;3.57;;
5054;SDS011;13829;48.990;8.346;2023-03-31T05:06:19;6.80;;;3.43;;
5054;SDS011;13829;48.990;8.346;2023-03-31T05:08:46;6.97;;;3.37;;
5054;SDS011;13829;48.990;8.346;2023-03-31T05:11:15;7.40;;;3.23;;
5054;SDS011;13829;48.990;8.346;2023-03-31T05:13:43;5.40;;;3.43;;
5054;SDS011;13829;48.990;8.346;2023-03-31T05:16:11;8.00;;;3.27;;
5054;SDS011;13829;48.990;8.346;2023-03-31T05:18:41;6.80;;;3.83;;
5054;SDS011;13829;48.990;8.346;2023-03-31T05:21:09;8.60;;;4.17;;
5054;SDS011;13829;48.990;8.346;2023-03-31T05:23:38;8.43;;;3.90;;
5054;SDS011;13829;48.990;8.346;2023-03-31T05:26:06;7.17;;;3.10;;
5054;SDS011;13829;48.990;8.346;2023-03-31T05:28:33;9.20;;;3.23;;
5054;SDS011;13829;48.990;8.346;2023-03-31T05:31:02;9.23;;;3.60;;
5054;SDS011;13829;48.990;8.346;2023-03-31T05:33:31;7.27;;;4.00;;
5054;SDS011;13829;48.990;8.346;2023-03-31T05:36:04;9.27;;;3.70;;
5054;SDS011;13829;48.990;8.346;2023-03-31T05:38:32;6.80;;;3.63;;
5054;SDS011;13829;48.990;8.346;2023-03-31T05:40:59;7.03;;;4.10;;
5054;SDS011;13829;48.990;8.346;2023-03-31T05:43:26;9.03;;;4.10;;
5054;SDS011;13829;48.990;8.346;2023-03-31T05:45:53;7.90;;;4.63;;
5054;SDS011;13829;48.990;8.346;2023-03-31T05:48:28;8.40;;;3.77;;
5054;SDS011;13829;48.990;8.346;2023-03-31T05:50:55;7.57;;;3.33;;
5054;SDS011;13829;48.990;8.346;2023-03-31T05:53:23;7.50;;;4.07;;
5054;SDS011;13829;48.990;8.346;2023-03-31T05:55:55;10.80;;;4.37;;
5054;SDS011;13829;48.990;8.346;2023-03-31T05:58:23;5.27;;;4.00;;
5054;SDS011;13829;48.990;8.346;2023-03-31T06:00:58;8.07;;;4.00;;
5054;SDS011;13829;48.990;8.346;2023-03-31T06:03:31;8.90;;;4.50;;
5054;SDS011;13829;48.990;8.346;2023-03-31T06:05:58;10.23;;;4.73;;
5054;SDS011;13829;48.990;8.346;2023-03-31T06:08:25;8.87;;;4.03;;
5054;SDS011;13829;48.990;8.346;2023-03-31T06:10:54;6.87;;;4.60;;
5054;SDS011;13829;48.990;8.346;2023-03-31T06:13:23;6.70;;;4.30;;
5054;SDS011;13829;48.990;8.346;2023-03-31T06:15:55;12.00;;;4.90;;
5054;SDS011;13829;48.990;8.346;2023-03-31T06:18:25;6.97;;;4.40;;
5054;SDS011;13829;48.990;8.346;2023-03-31T06:20:55;8.23;;;4.93;;
5054;SDS011;13829;48.990;8.346;2023-03-31T06:23:28;10.77;;;4.70;;
5054;SDS011;13829;48.990;8.346;2023-03-31T06:26:00;10.40;;;4.70;;
5054;SDS011;13829;48.990;8.346;2023-03-31T06:28:30;9.03;;;5.17;;
5054;SDS011;13829;48.990;8.346;2023-03-31T06:30:58;9.77;;;5.07;;
5054;SDS011;13829;48.990;8.346;2023-03-31T06:33:31;15.60;;;6.37;;
5054;SDS011;13829;48.990;8.346;2023-03-31T06:36:02;12.20;;;5.80;;
5054;SDS011;13829;48.990;8.346;2023-03-31T06:38:31;15.53;;;6.00;;
5054;SDS011;13829;48.990;8.346;2023-03-31T06:40:58;8.87;;;5.33;;
5054;SDS011;13829;48.990;8.346;2023-03-31T06:43:25;8.13;;;5.43;;
5054;SDS011;13829;48.990;8.346;2023-03-31T06:45:54;9.47;;;6.20;;
5054;SDS011;13829;48.990;8.346;2023-03-31T06:48:23;10.73;;;6.07;;
5054;SDS011;13829;48.990;8.346;2023-03-31T06:50:54;10.93;;;5.57;;
5054;SDS011;13829;48.990;8.346;2023-03-31T06:53:28;10.73;;;5.67;;
5054;SDS011;13829;48.990;8.346;2023-03-31T06:55:57;10.70;;;5.77;;
5054;SDS011;13829;48.990;8.346;2023-03-31T06:58:25;11.53;;;5.43;;
5054;SDS011;13829;48.990;8.346;2023-03-31T07:00:52;9.40;;;4.97;;
5054;SDS011;13829;48.990;8.346;2023-03-31T07:03:22;8.83;;;5.30;;
5054;SDS011;13829;48.990;8.346;2023-03-31T07:05:50;9.33;;;5.00;;
5054;SDS011;13829;48.990;8.346;2023-03-31T07:08:21;9.00;;;5.07;;
5054;SDS011;13829;48.990;8.346;2023-03-31T07:10:52;8.80;;;4.60;;
5054;SDS011;13829;48.990;8.346;2023-03-31T07:13:21;6.70;;;4.27;;
5054;SDS011;13829;48.990;8.346;2023-03-31T07:15:49;7.00;;;3.90;;
5054;SDS011;13829;48.990;8.346;2023-03-31T07:18:18;6.90;;;3.80;;
5054;SDS011;13829;48.990;8.346;2023-03-31T07:20:50;5.67;;;3.93;;
5054;SDS011;13829;48.990;8.346;2023-03-31T07:23:17;5.17;;;3.17;;
5054;SDS011;13829;48.990;8.346;2023-03-31T07:25:46;4.57;;;2.87;;
5054;SDS011;13829;48.990;8.346;2023-03-31T07:28:15;3.80;;;2.50;;
5054;SDS011;13829;48.990;8.346;2023-03-31T07:30:42;3.40;;;2.23;;
5054;SDS011;13829;48.990;8.346;2023-03-31T07:33:13;2.57;;;1.90;;
5054;SDS011;13829;48.990;8.346;2023-03-31T07:35:40;3.53;;;1.83;;
5054;SDS011;13829;48.990;8.346;2023-03-31T07:38:07;5.27;;;2.33;;
5054;SDS011;13829;48.990;8.346;2023-03-31T07:40:37;4.80;;;2.20;;
5054;SDS011;13829;48.990;8.346;2023-03-31T07:43:05;3.40;;;2.23;;
5054;SDS011;13829;48.990;8.346;2023-03-31T07:45:34;3.53;;;2.03;;
5054;SDS011;13829;48.990;8.346;2023-03-31T07:48:04;3.47;;;2.10;;
5054;SDS011;13829;48.990;8.346;2023-03-31T07:50:35;4.00;;;2.03;;
5054;SDS011;13829;48.990;8.346;2023-03-31T07:53:02;2.03;;;1.80;;
5054;SDS011;13829;48.990;8.346;2023-03-31T07:55:29;2.40;;;1.70;;
5054;SDS011;13829;48.990;8.346;2023-03-31T07:57:56;5.93;;;2.00;;
5054;SDS011;13829;48.990;8.346;2023-03-31T08:00:23;4.13;;;1.67;;
5054;SDS011;13829;48.990;8.346;2023-03-31T08:02:54;3.23;;;2.10;;
5054;SDS011;13829;48.990;8.346;2023-03-31T08:05:21;3.50;;;1.93;;
5054;SDS011;13829;48.990;8.346;2023-03-31T08:07:54;2.87;;;1.67;;
5054;SDS011;13829;48.990;8.346;2023-03-31T08:10:22;4.07;;;1.93;;
5054;SDS011;13829;48.990;8.346;2023-03-31T08:12:52;3.80;;;2.20;;
5054;SDS011;13829;48.990;8.346;2023-03-31T08:15:21;4.20;;;1.70;;
5054;SDS011;13829;48.990;8.346;2023-03-31T08:17:53;2.60;;;1.43;;
5054;SDS011;13829;48.990;8.346;2023-03-31T08:20:22;6.47;;;1.80;;
5054;SDS011;13829;48.990;8.346;2023-03-31T08:22:48;3.17;;;1.80;;
5054;SDS011;13829;48.990;8.346;2023-03-31T08:25:17;2.90;;;1.90;;
5054;SDS011;13829;48.990;8.346;2023-03-31T08:27:47;3.27;;;1.87;;
5054;SDS011;13829;48.990;8.346;2023-03-31T08:30:15;3.63;;;1.87;;
5054;SDS011;13829;48.990;8.346;2023-03-31T08:32:43;4.67;;;1.87;;
5054;SDS011;13829;48.990;8.346;2023-03-31T08:35:12;2.87;;;1.87;;
5054;SDS011;13829;48.990;8.346;2023-03-31T08:37:42;4.43;;;1.80;;
5054;SDS011;13829;48.990;8.346;2023-03-31T08:40:12;3.60;;;1.80;;
5054;SDS011;13829;48.990;8.346;2023-03-31T08:42:48;4.97;;;1.80;;
5054;SDS011;13829;48.990;8.346;2023-03-31T08:45:19;5.47;;;2.10;;
5054;SDS011;13829;48.990;8.346;2023-03-31T08:47:52;3.83;;;1.93;;
5054;SDS011;13829;48.990;8.346;2023-03-31T08:50:27;2.67;;;1.67;;
5054;SDS011;13829;48.990;8.346;2023-03-31T08:53:01;3.90;;;1.60;;
5054;SDS011;13829;48.990;8.346;2023-03-31T08:55:34;5.60;;;2.13;;
5054;SDS011;13829;48.990;8.346;2023-03-31T08:58:17;3.53;;;1.90;;
5054;SDS011;13829;48.990;8.346;2023-03-31T09:01:02;2.90;;;1.63;;
5054;SDS011;13829;48.990;8.346;2023-03-31T09:03:45;3.00;;;1.97;;
5054;SDS011;13829;48.990;8.346;2023-03-31T09:06:37;4.03;;;1.73;;
5054;SDS011;13829;48.990;8.346;2023-03-31T09:09:09;2.73;;;1.63;;
5054;SDS011;13829;48.990;8.346;2023-03-31T09:11:45;5.57;;;1.70;;
5054;SDS011;13829;48.990;8.346;2023-03-31T09:14:22;2.53;;;1.50;;
5054;SDS011;13829;48.990;8.346;2023-03-31T09:16:58;5.97;;;1.67;;
5054;SDS011;13829;48.990;8.346;2023-03-31T09:19:42;2.27;;;1.60;;
5054;SDS011;13829;48.990;8.346;2023-03-31T09:22:17;6.07;;;1.90;;
5054;SDS011;13829;48.990;8.346;2023-03-31T09:24:51;6.37;;;1.90;;
5054;SDS011;13829;48.990;8.346;2023-03-31T09:27:29;4.63;;;1.93;;
5054;SDS011;13829;48.990;8.346;2023-03-31T09:30:09;3.50;;;1.60;;
5054;SDS011;13829;48.990;8.346;2023-03-31T09:32:42;5.87;;;2.00;;
5054;SDS011;13829;48.990;8.346;2023-03-31T09:35:13;7.43;;;2.00;;
5054;SDS011;13829;48.990;8.346;2023-03-31T09:37:44;7.10;;;2.40;;
5054;SDS011;13829;48.990;8.346;2023-03-31T09:40:13;5.77;;;2.37;;
5054;SDS011;13829;48.990;8.346;2023-03-31T09:42:45;4.83;;;2.30;;
5054;SDS011;13829;48.990;8.346;2023-03-31T09:45:18;6.20;;;1.90;;
5054;SDS011;13829;48.990;8.346;2023-03-31T09:47:46;6.47;;;2.00;;
5054;SDS011;13829;48.990;8.346;2023-03-31T09:50:19;5.53;;;2.13;;
5054;SDS011;13829;48.990;8.346;2023-03-31T09:52:50;7.67;;;2.30;;
5054;SDS011;13829;48.990;8.346;2023-03-31T09:55:23;8.70;;;2.57;;
5054;SDS011;13829;48.990;8.346;2023-03-31T09:57:58;4.73;;;2.07;;
5054;SDS011;13829;48.990;8.346;2023-03-31T10:00:26;7.73;;;2.20;;
5054;SDS011;13829;48.990;8.346;2023-03-31T10:02:53;5.73;;;2.40;;
5054;SDS011;13829;48.990;8.346;2023-03-31T10:05:27;4.63;;;2.20;;
5054;SDS011;13829;48.990;8.346;2023-03-31T10:08:20;10.67;;;3.43;;
5054;SDS011;13829;48.990;8.346;2023-03-31T10:10:56;8.87;;;2.70;;
5054;SDS011;13829;48.990;8.346;2023-03-31T10:13:34;7.00;;;2.27;;
5054;SDS011;13829;48.990;8.346;2023-03-31T10:16:11;6.33;;;2.20;;
5054;SDS011;13829;48.990;8.346;2023-03-31T10:18:47;5.93;;;2.27;;
5054;SDS011;13829;48.990;8.346;2023-03-31T10:21:17;8.27;;;2.30;;
5054;SDS011;13829;48.990;8.346;2023-03-31T10:23:50;6.60;;;2.17;;
5054;SDS011;13829;48.990;8.346;2023-03-31T10:26:19;7.80;;;2.50;;
5054;SDS011;13829;48.990;8.346;2023-03-31T10:28:50;4.83;;;2.07;;
5054;SDS011;13829;48.990;8.346;2023-03-31T10:31:20;6.10;;;2.40;;
5054;SDS011;13829;48.990;8.346;2023-03-31T10:33:51;8.90;;;2.30;;
5054;SDS011;13829;48.990;8.346;2023-03-31T10:36:22;9.23;;;2.63;;
5054;SDS011;13829;48.990;8.346;2023-03-31T10:38:55;6.27;;;2.33;;
5054;SDS011;13829;48.990;8.346;2023-03-31T10:41:24;4.57;;;2.20;;
5054;SDS011;13829;48.990;8.346;2023-03-31T10:43:55;5.63;;;2.13;;
5054;SDS011;13829;48.990;8.346;2023-03-31T10:46:38;5.87;;;1.90;;
5054;SDS011;13829;48.990;8.346;2023-03-31T10:49:14;6.67;;;1.77;;
5054;SDS011;13829;48.990;8.346;2023-03-31T10:51:51;5.90;;;1.27;;
5054;SDS011;13829;48.990;8.346;2023-03-31T10:54:23;4.47;;;1.27;;
5054;SDS011;13829;48.990;8.346;2023-03-31T10:56:53;4.30;;;1.20;;
5054;SDS011;13829;48.990;8.346;2023-03-31T10:59:29;2.33;;;0.93;;
5054;SDS011;13829;48.990;8.346;2023-03-31T11:05:17;3.27;;;0.80;;
5054;SDS011;13829;48.990;8.346;2023-03-31T11:07:59;4.10;;;0.90;;
5054;SDS011;13829;48.990;8.346;2023-03-31T11:10:55;4.23;;;1.10;;
5054;SDS011;13829;48.990;8.346;2023-03-31T11:13:39;2.10;;;0.70;;
5054;SDS011;13829;48.990;8.346;2023-03-31T11:16:20;1.53;;;0.60;;
5054;SDS011;13829;48.990;8.346;2023-03-31T11:19:08;4.13;;;1.27;;
5054;SDS011;13829;48.990;8.346;2023-03-31T11:21:53;3.27;;;1.20;;
5054;SDS011;13829;48.990;8.346;2023-03-31T11:24:37;2.33;;;1.00;;
5054;SDS011;13829;48.990;8.346;2023-03-31T11:27:35;3.27;;;1.03;;
5054;SDS011;13829;48.990;8.346;2023-03-31T11:30:23;2.13;;;0.90;;
5054;SDS011;13829;48.990;8.346;2023-03-31T11:33:04;1.77;;;0.50;;
5054;SDS011;13829;48.990;8.346;2023-03-31T11:36:00;1.07;;;0.60;;
5054;SDS011;13829;48.990;8.346;2023-03-31T11:38:52;1.10;;;0.80;;
5054;SDS011;13829;48.990;8.346;2023-03-31T11:41:40;1.03;;;0.70;;
5054;SDS011;13829;48.990;8.346;2023-03-31T11:44:16;0.97;;;0.60;;
5054;SDS011;13829;48.990;8.346;2023-03-31T11:46:48;1.83;;;0.57;;
5054;SDS011;13829;48.990;8.346;2023-03-31T11:49:21;1.57;;;0.47;;
5054;SDS011;13829;48.990;8.346;2023-03-31T11:51:54;1.60;;;0.60;;
5054;SDS011;13829;48.990;8.346;2023-03-31T11:54:27;2.20;;;0.60;;
5054;SDS011;13829;48.990;8.346;2023-03-31T11:57:01;1.97;;;0.80;;
5054;SDS011;13829;48.990;8.346;2023-03-31T11:59:43;4.33;;;0.90;;
5054;SDS011;13829;48.990;8.346;2023-03-31T12:02:20;3.13;;;0.90;;
5054;SDS011;13829;48.990;8.346;2023-03-31T12:04:57;4.67;;;1.30;;
5054;SDS011;13829;48.990;8.346;2023-03-31T12:07:27;3.93;;;1.23;;
5054;SDS011;13829;48.990;8.346;2023-03-31T12:10:02;3.33;;;1.10;;
5054;SDS011;13829;48.990;8.346;2023-03-31T12:12:45;4.00;;;1.10;;
5054;SDS011;13829;48.990;8.346;2023-03-31T12:15:26;3.47;;;0.80;;
5054;SDS011;13829;48.990;8.346;2023-03-31T12:18:02;3.20;;;1.30;;
5054;SDS011;13829;48.990;8.346;2023-03-31T12:20:41;4.40;;;1.03;;
5054;SDS011;13829;48.990;8.346;2023-03-31T12:23:16;2.23;;;0.90;;
5054;SDS011;13829;48.990;8.346;2023-03-31T12:25:52;1.87;;;1.03;;
5054;SDS011;13829;48.990;8.346;2023-03-31T12:28:27;2.73;;;0.90;;
5054;SDS011;13829;48.990;8.346;2023-03-31T12:30:59;3.43;;;0.87;;
5054;SDS011;13829;48.990;8.346;2023-03-31T12:33:30;2.30;;;0.97;;
5054;SDS011;13829;48.990;8.346;2023-03-31T12:36:08;1.97;;;0.80;;
5054;SDS011;13829;48.990;8.346;2023-03-31T12:38:50;2.87;;;0.80;;
5054;SDS011;13829;48.990;8.346;2023-03-31T12:41:37;3.03;;;1.17;;
5054;SDS011;13829;48.990;8.346;2023-03-31T12:44:26;4.23;;;1.20;;
5054;SDS011;13829;48.990;8.346;2023-03-31T12:47:13;3.57;;;0.80;;
5054;SDS011;13829;48.990;8.346;2023-03-31T12:50:19;2.70;;;0.90;;
5054;SDS011;13829;48.990;8.346;2023-03-31T12:53:12;3.17;;;0.90;;
5054;SDS011;13829;48.990;8.346;2023-03-31T12:55:57;2.13;;;1.27;;
5054;SDS011;13829;48.990;8.346;2023-03-31T12:58:36;2.67;;;1.00;;
5054;SDS011;13829;48.990;8.346;2023-03-31T13:01:11;3.83;;;1.30;;
5054;SDS011;13829;48.990;8.346;2023-03-31T13:03:55;2.87;;;0.83;;
5054;SDS011;13829;48.990;8.346;2023-03-31T13:06:49;3.40;;;1.20;;
5054;SDS011;13829;48.990;8.346;2023-03-31T13:09:38;3.67;;;1.20;;
5054;SDS011;13829;48.990;8.346;2023-03-31T13:12:17;2.63;;;1.00;;
5054;SDS011;13829;48.990;8.346;2023-03-31T13:14:47;4.10;;;0.73;;
5054;SDS011;13829;48.990;8.346;2023-03-31T13:17:22;3.33;;;1.20;;
5054;SDS011;13829;48.990;8.346;2023-03-31T13:19:54;1.30;;;0.63;;
5054;SDS011;13829;48.990;8.346;2023-03-31T13:22:42;2.83;;;0.90;;
5054;SDS011;13829;48.990;8.346;2023-03-31T13:28:17;3.27;;;1.30;;
5054;SDS011;13829;48.990;8.346;2023-03-31T13:31:03;3.50;;;1.40;;
5054;SDS011;13829;48.990;8.346;2023-03-31T13:33:32;3.57;;;1.20;;
5054;SDS011;13829;48.990;8.346;2023-03-31T13:36:18;5.33;;;1.30;;
5054;SDS011;13829;48.990;8.346;2023-03-31T13:42:35;3.57;;;1.20;;
5054;SDS011;13829;48.990;8.346;2023-03-31T13:45:46;5.47;;;0.90;;
5054;SDS011;13829;48.990;8.346;2023-03-31T13:48:48;4.03;;;1.10;;
5054;SDS011;13829;48.990;8.346;2023-03-31T13:51:39;4.10;;;1.27;;
5054;SDS011;13829;48.990;8.346;2023-03-31T13:54:27;3.17;;;0.90;;
5054;SDS011;13829;48.990;8.346;2023-03-31T13:57:33;5.17;;;1.10;;
5054;SDS011;13829;48.990;8.346;2023-03-31T14:00:24;2.77;;;1.30;;
5054;SDS011;13829;48.990;8.346;2023-03-31T14:06:03;3.90;;;1.20;;
5054;SDS011;13829;48.990;8.346;2023-03-31T14:08:48;3.23;;;1.13;;
5054;SDS011;13829;48.990;8.346;2023-03-31T14:11:21;1.93;;;0.90;;
5054;SDS011;13829;48.990;8.346;2023-03-31T14:14:02;2.63;;;1.10;;
5054;SDS011;13829;48.990;8.346;2023-03-31T14:16:36;3.90;;;1.30;;
5054;SDS011;13829;48.990;8.346;2023-03-31T14:19:10;1.43;;;0.90;;
5054;SDS011;13829;48.990;8.346;2023-03-31T14:22:07;5.27;;;1.20;;
5054;SDS011;13829;48.990;8.346;2023-03-31T14:24:49;4.00;;;1.13;;
5054;SDS011;13829;48.990;8.346;2023-03-31T14:27:35;3.30;;;1.20;;
5054;SDS011;13829;48.990;8.346;2023-03-31T14:30:22;1.53;;;0.90;;
5054;SDS011;13829;48.990;8.346;2023-03-31T14:33:06;4.37;;;1.10;;
5054;SDS011;13829;48.990;8.346;2023-03-31T14:35:49;4.27;;;1.00;;
5054;SDS011;13829;48.990;8.346;2023-03-31T14:38:26;2.40;;;0.90;;
5054;SDS011;13829;48.990;8.346;2023-03-31T14:40:59;1.77;;;0.70;;
5054;SDS011;13829;48.990;8.346;2023-03-31T14:43:31;2.07;;;1.00;;
5054;SDS011;13829;48.990;8.346;2023-03-31T14:46:07;1.97;;;0.70;;
5054;SDS011;13829;48.990;8.346;2023-03-31T14:48:38;3.00;;;0.87;;
5054;SDS011;13829;48.990;8.346;2023-03-31T14:51:13;2.17;;;0.70;;
5054;SDS011;13829;48.990;8.346;2023-03-31T14:53:42;2.03;;;1.00;;
5054;SDS011;13829;48.990;8.346;2023-03-31T14:56:10;3.17;;;1.27;;
5054;SDS011;13829;48.990;8.346;2023-03-31T14:58:41;2.13;;;0.77;;
5054;SDS011;13829;48.990;8.346;2023-03-31T15:01:15;3.83;;;1.20;;
5054;SDS011;13829;48.990;8.346;2023-03-31T15:03:49;2.97;;;0.97;;
5054;SDS011;13829;48.990;8.346;2023-03-31T15:06:19;2.50;;;0.97;;
5054;SDS011;13829;48.990;8.346;2023-03-31T15:08:50;2.30;;;0.93;;
5054;SDS011;13829;48.990;8.346;2023-03-31T15:11:24;5.77;;;1.43;;
5054;SDS011;13829;48.990;8.346;2023-03-31T15:13:54;2.77;;;1.37;;
5054;SDS011;13829;48.990;8.346;2023-03-31T15:16:29;3.10;;;1.50;;
5054;SDS011;13829;48.990;8.346;2023-03-31T15:19:04;3.43;;;1.37;;
5054;SDS011;13829;48.990;8.346;2023-03-31T15:21:39;3.40;;;1.20;;
5054;SDS011;13829;48.990;8.346;2023-03-31T15:24:06;4.67;;;1.57;;
5054;SDS011;13829;48.990;8.346;2023-03-31T15:26:38;4.13;;;1.47;;
5054;SDS011;13829;48.990;8.346;2023-03-31T15:29:12;8.00;;;1.90;;
5054;SDS011;13829;48.990;8.346;2023-03-31T15:31:47;3.97;;;1.50;;
5054;SDS011;13829;48.990;8.346;2023-03-31T15:34:18;3.07;;;1.00;;
5054;SDS011;13829;48.990;8.346;2023-03-31T15:36:55;2.37;;;0.97;;
5054;SDS011;13829;48.990;8.346;2023-03-31T15:39:27;5.50;;;1.20;;
5054;SDS011;13829;48.990;8.346;2023-03-31T15:42:09;3.57;;;1.20;;
5054;SDS011;13829;48.990;8.346;2023-03-31T15:44:37;5.00;;;1.90;;
5054;SDS011;13829;48.990;8.346;2023-03-31T15:47:15;4.33;;;1.50;;
5054;SDS011;13829;48.990;8.346;2023-03-31T15:49:50;3.07;;;1.13;;
5054;SDS011;13829;48.990;8.346;2023-03-31T15:52:28;5.03;;;1.47;;
5054;SDS011;13829;48.990;8.346;2023-03-31T15:55:22;2.47;;;1.20;;
5054;SDS011;13829;48.990;8.346;2023-03-31T15:57:54;1.67;;;0.63;;
5054;SDS011;13829;48.990;8.346;2023-03-31T16:00:41;1.70;;;1.13;;
5054;SDS011;13829;48.990;8.346;2023-03-31T16:03:15;1.37;;;0.70;;
5054;SDS011;13829;48.990;8.346;2023-03-31T16:05:48;2.33;;;0.80;;